createdAt,value
2022-09-18T00:02:23.001Z,7.78
2022-09-18T00:04:50.006Z,7.79
2022-09-18T00:07:17.141Z,7.88
2022-09-18T00:09:47.982Z,7.93
2022-09-18T00:12:14.641Z,7.94
2022-09-18T00:14:41.463Z,7.98
2022-09-18T00:17:10.356Z,8.04
2022-09-18T00:19:36.916Z,8.04
2022-09-18T00:22:03.544Z,8.08
2022-09-18T00:24:31.762Z,8.09
2022-09-18T00:26:58.498Z,8.03
2022-09-18T00:29:25.097Z,8.08
2022-09-18T00:31:52.658Z,8.08
2022-09-18T00:34:19.459Z,8.07
2022-09-18T00:36:46.077Z,8.03
2022-09-18T00:39:13.016Z,7.97
2022-09-18T00:41:42.332Z,7.99
2022-09-18T00:44:25.022Z,7.94
2022-09-18T00:46:52.490Z,7.88
2022-09-18T00:49:23.836Z,7.91
2022-09-18T00:51:54.038Z,7.70
2022-09-18T00:54:42.401Z,7.83
2022-09-18T00:57:13.301Z,7.82
2022-09-18T00:59:42.801Z,7.89
2022-09-18T01:02:09.656Z,7.90
2022-09-18T01:04:36.312Z,7.90
2022-09-18T01:07:33.845Z,7.88
2022-09-18T01:10:10.459Z,7.81
2022-09-18T01:13:02.751Z,7.75
2022-09-18T01:15:51.749Z,7.70
2022-09-18T01:18:30.135Z,7.58
2022-09-18T01:21:07.618Z,7.58
2022-09-18T01:23:52.766Z,7.59
2022-09-18T01:26:19.316Z,7.58
2022-09-18T01:29:08.342Z,7.56
2022-09-18T01:31:43.195Z,7.48
2022-09-18T01:34:24.654Z,7.43
2022-09-18T01:37:00.188Z,7.37
2022-09-18T01:40:09.170Z,7.34
2022-09-18T01:42:39.756Z,7.23
2022-09-18T01:45:12.640Z,7.25
2022-09-18T01:47:47.802Z,7.25
2022-09-18T01:50:17.530Z,7.25
2022-09-18T01:52:55.585Z,7.21
2022-09-18T01:55:26.531Z,7.03
2022-09-18T01:58:03.257Z,7.12
2022-09-18T02:00:31.807Z,7.18
2022-09-18T02:03:03.134Z,7.13
2022-09-18T02:05:33.788Z,7.10
2022-09-18T02:08:22.193Z,7.09
2022-09-18T02:11:03.927Z,7.03
2022-09-18T02:13:39.504Z,7.03
2022-09-18T02:16:15.384Z,7.03
2022-09-18T02:18:47.250Z,6.87
2022-09-18T02:21:29.763Z,6.98
2022-09-18T02:24:08.486Z,7.05
2022-09-18T02:26:38.082Z,7.06
2022-09-18T02:29:06.884Z,7.02
2022-09-18T02:31:34.478Z,7.01
2022-09-18T02:34:01.144Z,6.99
2022-09-18T02:36:48.991Z,6.90
2022-09-18T02:39:55.516Z,6.93
2022-09-18T02:42:42.025Z,6.94
2022-09-18T02:45:14.811Z,6.98
2022-09-18T02:48:12.588Z,7.08
2022-09-18T02:51:04.241Z,7.18
2022-09-18T02:53:40.254Z,7.08
2022-09-18T02:56:15.231Z,7.15
2022-09-18T02:58:54.531Z,7.24
2022-09-18T03:01:24.129Z,7.20
2022-09-18T03:03:51.946Z,7.26
2022-09-18T03:06:18.942Z,7.45
2022-09-18T03:08:46.473Z,7.50
2022-09-18T03:11:14.119Z,7.54
2022-09-18T03:13:40.666Z,7.53
2022-09-18T03:16:09.715Z,7.54
2022-09-18T03:18:36.370Z,7.54
2022-09-18T03:21:02.980Z,7.56
2022-09-18T03:23:29.604Z,7.69
2022-09-18T03:25:56.235Z,7.72
2022-09-18T03:28:22.792Z,7.73
2022-09-18T03:30:50.670Z,7.74
2022-09-18T03:33:18.026Z,7.72
2022-09-18T03:35:44.648Z,7.74
2022-09-18T03:38:11.292Z,7.77
2022-09-18T03:40:38.589Z,7.78
2022-09-18T03:43:06.504Z,7.86
2022-09-18T03:45:33.183Z,7.91
2022-09-18T03:47:59.883Z,7.96
2022-09-18T03:50:26.608Z,8.00
2022-09-18T03:52:53.211Z,8.08
2022-09-18T03:55:19.790Z,8.16
2022-09-18T03:57:46.934Z,8.24
2022-09-18T04:00:14.775Z,8.29
2022-09-18T04:02:42.294Z,8.39
2022-09-18T04:05:10.817Z,8.46
2022-09-18T04:07:37.482Z,8.51
2022-09-18T04:10:04.360Z,8.09
2022-09-18T04:12:30.934Z,8.60
2022-09-18T04:14:58.312Z,8.71
2022-09-18T04:17:25.100Z,8.66
2022-09-18T04:19:53.752Z,8.82
2022-09-18T04:22:21.967Z,8.77
2022-09-18T04:24:50.508Z,8.96
2022-09-18T04:27:17.381Z,9.04
2022-09-18T04:29:44.410Z,9.12
2022-09-18T04:32:10.999Z,9.16
2022-09-18T04:34:37.571Z,9.20
2022-09-18T04:37:10.003Z,9.33
2022-09-18T04:39:37.002Z,9.43
2022-09-18T04:42:04.929Z,9.51
2022-09-18T04:44:32.386Z,9.53
2022-09-18T04:46:59.071Z,9.61
2022-09-18T04:49:25.702Z,9.32
2022-09-18T04:51:53.074Z,9.77
2022-09-18T04:54:19.639Z,9.86
2022-09-18T04:56:46.190Z,10.00
2022-09-18T04:59:12.947Z,10.09
2022-09-18T05:01:39.555Z,10.21
2022-09-18T05:04:06.894Z,10.32
2022-09-18T05:06:33.538Z,10.38
2022-09-18T05:09:00.286Z,10.51
2022-09-18T05:11:28.252Z,10.59
2022-09-18T05:13:56.911Z,10.72
2022-09-18T05:16:26.770Z,10.75
2022-09-18T05:18:53.385Z,10.81
2022-09-18T05:21:20.131Z,10.83
2022-09-18T05:23:47.995Z,10.71
2022-09-18T05:26:14.971Z,10.66
2022-09-18T05:28:43.278Z,10.65
2022-09-18T05:31:10.301Z,10.67
2022-09-18T05:33:38.772Z,10.62
2022-09-18T05:36:06.400Z,10.68
2022-09-18T05:38:33.168Z,10.73
2022-09-18T05:41:01.872Z,10.75
2022-09-18T05:43:30.538Z,10.87
2022-09-18T05:46:02.166Z,10.80
2022-09-18T05:48:29.001Z,10.94
2022-09-18T05:50:57.119Z,11.01
2022-09-18T05:53:23.663Z,11.06
2022-09-18T05:55:50.372Z,11.12
2022-09-18T05:58:20.308Z,11.06
2022-09-18T06:00:47.472Z,11.10
2022-09-18T06:03:16.350Z,11.11
2022-09-18T06:05:43.989Z,11.02
2022-09-18T06:08:12.309Z,11.03
2022-09-18T06:10:40.747Z,11.03
2022-09-18T06:13:15.643Z,11.01
2022-09-18T06:15:47.740Z,11.10
2022-09-18T06:18:15.449Z,11.13
2022-09-18T06:20:44.225Z,11.23
2022-09-18T06:23:13.713Z,11.36
2022-09-18T06:25:40.399Z,11.43
2022-09-18T06:28:10.201Z,11.53
2022-09-18T06:30:37.000Z,11.63
2022-09-18T06:33:06.667Z,11.79
2022-09-18T06:35:34.663Z,11.89
2022-09-18T06:38:06.020Z,11.94
2022-09-18T06:40:34.131Z,12.13
2022-09-18T06:43:03.294Z,12.28
2022-09-18T06:45:31.285Z,12.43
2022-09-18T06:48:04.880Z,12.52
2022-09-18T06:50:32.083Z,12.78
2022-09-18T06:53:12.207Z,12.97
2022-09-18T06:55:39.464Z,13.13
2022-09-18T06:58:06.151Z,13.29
2022-09-18T07:00:34.552Z,13.56
2022-09-18T07:03:02.927Z,13.85
2022-09-18T07:05:31.863Z,14.14
2022-09-18T07:07:59.145Z,14.38
2022-09-18T07:10:26.502Z,14.57
2022-09-18T07:12:57.453Z,14.63
2022-09-18T07:15:25.644Z,14.71
2022-09-18T07:17:52.799Z,14.80
2022-09-18T07:20:20.815Z,14.79
2022-09-18T07:22:55.557Z,14.71
2022-09-18T07:25:23.206Z,14.64
2022-09-18T07:27:50.287Z,14.54
2022-09-18T07:30:18.554Z,14.45
2022-09-18T07:32:45.764Z,14.39
2022-09-18T07:35:13.390Z,14.48
2022-09-18T07:37:40.795Z,14.53
2022-09-18T07:40:09.474Z,14.69
2022-09-18T07:42:36.642Z,14.88
2022-09-18T07:45:04.017Z,15.34
2022-09-18T07:47:30.710Z,15.82
2022-09-18T07:49:57.453Z,16.14
2022-09-18T07:52:26.347Z,16.56
2022-09-18T07:54:53.010Z,17.05
2022-09-18T07:57:19.759Z,17.32
2022-09-18T07:59:46.844Z,17.41
2022-09-18T08:02:13.675Z,17.38
2022-09-18T08:04:40.618Z,17.22
2022-09-18T08:07:07.650Z,16.95
2022-09-18T08:09:34.401Z,16.96
2022-09-18T08:12:02.147Z,16.95
2022-09-18T08:14:29.665Z,16.93
2022-09-18T08:16:56.824Z,16.85
2022-09-18T08:19:23.694Z,16.87
2022-09-18T08:21:53.026Z,16.81
2022-09-18T08:24:19.852Z,16.77
2022-09-18T08:26:46.688Z,16.72
2022-09-18T08:29:19.782Z,16.81
2022-09-18T08:31:47.365Z,16.58
2022-09-18T08:34:14.247Z,16.67
2022-09-18T08:36:41.006Z,16.55
2022-09-18T08:39:07.825Z,16.27
2022-09-18T08:41:42.003Z,16.10
2022-09-18T08:44:24.469Z,15.85
2022-09-18T08:47:04.957Z,15.52
2022-09-18T08:49:45.330Z,15.58
2022-09-18T08:52:21.936Z,15.47
2022-09-18T08:54:55.641Z,15.50
2022-09-18T08:57:22.986Z,15.50
2022-09-18T08:59:55.212Z,15.38
2022-09-18T09:02:38.215Z,15.42
2022-09-18T09:05:18.490Z,15.34
2022-09-18T09:08:23.915Z,15.33
2022-09-18T09:11:00.380Z,15.21
2022-09-18T09:13:30.414Z,15.12
2022-09-18T09:16:02.273Z,15.03
2022-09-18T09:18:36.676Z,15.09
2022-09-18T09:21:25.077Z,15.15
2022-09-18T09:24:32.765Z,15.20
2022-09-18T09:27:06.505Z,15.33
2022-09-18T09:29:40.160Z,15.59
2022-09-18T09:32:17.602Z,15.82
2022-09-18T09:35:16.955Z,16.01
2022-09-18T09:37:46.806Z,16.11
2022-09-18T09:40:27.148Z,16.07
2022-09-18T09:43:01.896Z,16.07
2022-09-18T09:45:50.431Z,16.07
2022-09-18T09:48:27.887Z,16.28
2022-09-18T09:51:07.580Z,16.35
2022-09-18T09:53:34.558Z,16.38
2022-09-18T09:56:35.220Z,16.30
2022-09-18T09:59:16.220Z,16.15
2022-09-18T10:02:04.124Z,16.01
2022-09-18T10:04:47.301Z,16.06
2022-09-18T10:07:58.951Z,16.03
2022-09-18T10:10:34.899Z,16.29
2022-09-18T10:13:17.053Z,16.35
2022-09-18T10:15:56.153Z,16.37
2022-09-18T10:18:28.959Z,16.58
2022-09-18T10:21:02.215Z,16.66
2022-09-18T10:23:39.867Z,16.84
2022-09-18T10:26:10.494Z,17.00
2022-09-18T10:28:37.298Z,17.15
2022-09-18T10:31:06.857Z,17.19
2022-09-18T10:33:36.977Z,17.28
2022-09-18T10:36:20.405Z,17.16
2022-09-18T10:38:47.610Z,16.89
2022-09-18T10:41:30.799Z,16.88
2022-09-18T10:44:20.521Z,16.74
2022-09-18T10:47:10.488Z,16.74
2022-09-18T10:50:09.288Z,16.82
2022-09-18T10:52:42.151Z,16.83
2022-09-18T10:55:22.648Z,16.83
2022-09-18T10:57:56.157Z,16.93
2022-09-18T11:00:29.975Z,16.96
2022-09-18T11:03:21.996Z,16.92
2022-09-18T11:05:53.118Z,16.82
2022-09-18T11:08:28.112Z,16.75
2022-09-18T11:11:02.630Z,16.52
2022-09-18T11:13:31.392Z,16.42
2022-09-18T11:16:02.536Z,16.37
2022-09-18T11:18:33.192Z,16.29
2022-09-18T11:21:04.330Z,16.24
2022-09-18T11:23:36.656Z,16.03
2022-09-18T11:26:11.473Z,16.08
2022-09-18T11:28:40.682Z,15.96
2022-09-18T11:31:18.330Z,15.97
2022-09-18T11:33:50.382Z,15.94
2022-09-18T11:36:29.152Z,15.94
2022-09-18T11:38:59.259Z,15.90
2022-09-18T11:41:32.675Z,15.86
2022-09-18T11:44:06.679Z,15.82
2022-09-18T11:46:51.980Z,15.75
2022-09-18T11:49:36.514Z,15.43
2022-09-18T11:52:18.665Z,15.64
2022-09-18T11:54:57.253Z,15.65
2022-09-18T11:57:40.565Z,15.34
2022-09-18T12:00:18.105Z,15.53
2022-09-18T12:03:05.197Z,15.45
2022-09-18T12:05:54.720Z,15.49
2022-09-18T12:08:39.524Z,15.54
2022-09-18T12:11:31.737Z,15.51
2022-09-18T12:14:12.888Z,15.48
2022-09-18T12:16:51.785Z,15.43
2022-09-18T12:19:24.139Z,15.39
2022-09-18T12:22:19.851Z,15.41
2022-09-18T12:24:46.454Z,15.41
2022-09-18T12:27:18.798Z,15.39
2022-09-18T12:30:13.889Z,15.41
2022-09-18T12:32:46.483Z,15.39
2022-09-18T12:35:37.388Z,15.38
2022-09-18T12:38:15.937Z,15.03
2022-09-18T12:41:02.282Z,15.28
2022-09-18T12:43:51.176Z,15.25
2022-09-18T12:46:20.659Z,15.24
2022-09-18T12:49:11.404Z,15.19
2022-09-18T12:51:38.797Z,15.15
2022-09-18T12:54:40.147Z,15.09
2022-09-18T12:57:21.630Z,15.09
2022-09-18T13:00:03.155Z,15.05
2022-09-18T13:02:52.649Z,15.00
2022-09-18T13:05:30.908Z,14.92
2022-09-18T13:08:21.031Z,14.87
2022-09-18T13:10:50.608Z,14.84
2022-09-18T13:13:35.616Z,14.75
2022-09-18T13:16:02.313Z,14.68
2022-09-18T13:18:48.562Z,14.72
2022-09-18T13:21:25.502Z,14.63
2022-09-18T13:23:54.211Z,14.62
2022-09-18T13:26:25.220Z,14.57
2022-09-18T13:28:51.873Z,14.48
2022-09-18T13:31:34.454Z,14.54
2022-09-18T13:34:15.871Z,14.45
2022-09-18T13:36:47.130Z,14.39
2022-09-18T13:39:23.622Z,14.29
2022-09-18T13:41:55.326Z,14.25
2022-09-18T13:44:36.048Z,14.23
2022-09-18T13:47:15.454Z,14.16
2022-09-18T13:49:52.752Z,14.05
2022-09-18T13:52:35.369Z,14.09
2022-09-18T13:55:14.031Z,14.03
2022-09-18T13:57:41.933Z,13.86
2022-09-18T14:00:20.559Z,13.97
2022-09-18T14:02:49.107Z,13.86
2022-09-18T14:05:29.840Z,13.93
2022-09-18T14:08:16.852Z,13.88
2022-09-18T14:11:15.025Z,13.84
2022-09-18T14:13:51.516Z,13.85
2022-09-18T14:16:18.820Z,13.84
2022-09-18T14:18:48.353Z,13.77
2022-09-18T14:21:17.790Z,13.70
2022-09-18T14:23:47.385Z,13.65
2022-09-18T14:26:33.186Z,13.65
2022-09-18T14:29:08.604Z,13.63
2022-09-18T14:31:47.260Z,13.48
2022-09-18T14:34:23.112Z,13.54
2022-09-18T14:36:57.837Z,13.43
2022-09-18T14:39:37.830Z,13.43
2022-09-18T14:42:20.996Z,13.45
2022-09-18T14:44:52.585Z,13.33
2022-09-18T14:47:25.736Z,13.39
2022-09-18T14:49:52.466Z,13.37
2022-09-18T14:52:24.876Z,13.34
2022-09-18T14:54:56.235Z,13.34
2022-09-18T14:57:31.956Z,13.24
2022-09-18T15:00:01.438Z,13.30
2022-09-18T15:02:37.098Z,13.27
2022-09-18T15:05:11.413Z,13.24
2022-09-18T15:07:40.058Z,13.21
2022-09-18T15:10:09.248Z,13.20
2022-09-18T15:12:37.105Z,13.18
2022-09-18T15:15:30.451Z,13.14
2022-09-18T15:17:57.614Z,13.09
2022-09-18T15:20:25.851Z,13.08
2022-09-18T15:22:53.461Z,13.06
2022-09-18T15:25:30.973Z,13.02
2022-09-18T15:28:03.094Z,13.01
2022-09-18T15:30:30.171Z,12.97
2022-09-18T15:33:02.717Z,12.89
2022-09-18T15:35:35.405Z,12.93
2022-09-18T15:38:05.538Z,12.91
2022-09-18T15:40:37.919Z,12.89
2022-09-18T15:43:41.604Z,12.86
2022-09-18T15:46:30.088Z,12.75
2022-09-18T15:49:00.606Z,12.81
2022-09-18T15:51:33.245Z,12.77
2022-09-18T15:54:12.811Z,12.80
2022-09-18T15:56:58.667Z,12.78
2022-09-18T15:59:35.694Z,12.58
2022-09-18T16:02:18.430Z,12.72
2022-09-18T16:04:45.286Z,12.69
2022-09-18T16:07:25.070Z,12.64
2022-09-18T16:09:52.750Z,12.69
2022-09-18T16:12:42.087Z,12.70
2022-09-18T16:15:23.550Z,12.63
2022-09-18T16:18:27.147Z,12.64
2022-09-18T16:21:00.079Z,12.65
2022-09-18T16:23:58.913Z,12.64
2022-09-18T16:26:32.448Z,12.64
2022-09-18T16:29:02.513Z,12.55
2022-09-18T16:31:35.989Z,12.61
2022-09-18T16:34:05.476Z,12.57
2022-09-18T16:36:32.936Z,12.57
2022-09-18T16:39:01.751Z,12.57
2022-09-18T16:41:30.175Z,12.57
2022-09-18T16:44:06.002Z,12.55
2022-09-18T16:46:50.415Z,12.55
2022-09-18T16:49:20.396Z,12.55
2022-09-18T16:51:46.965Z,12.52
2022-09-18T16:54:13.550Z,12.51
2022-09-18T16:56:52.953Z,12.46
2022-09-18T16:59:21.915Z,12.45
2022-09-18T17:02:03.475Z,12.42
2022-09-18T17:04:34.687Z,12.39
2022-09-18T17:07:01.671Z,12.40
2022-09-18T17:09:28.347Z,12.31
2022-09-18T17:11:55.627Z,12.38
2022-09-18T17:14:23.086Z,12.38
2022-09-18T17:16:49.753Z,12.38
2022-09-18T17:19:17.910Z,12.34
2022-09-18T17:21:44.841Z,12.35
2022-09-18T17:24:13.935Z,12.34
2022-09-18T17:26:41.651Z,12.15
2022-09-18T17:29:11.147Z,12.10
2022-09-18T17:31:38.891Z,12.30
2022-09-18T17:34:06.792Z,12.22
2022-09-18T17:36:39.153Z,12.20
2022-09-18T17:39:06.378Z,12.27
2022-09-18T17:41:36.788Z,12.21
2022-09-18T17:44:08.155Z,12.18
2022-09-18T17:46:35.249Z,12.22
2022-09-18T17:49:03.562Z,12.25
2022-09-18T17:51:30.157Z,12.26
2022-09-18T17:53:59.516Z,12.25
2022-09-18T17:56:30.011Z,12.21
2022-09-18T17:58:59.937Z,12.22
2022-09-18T18:01:28.166Z,12.14
2022-09-18T18:03:54.904Z,12.20
2022-09-18T18:06:22.046Z,12.09
2022-09-18T18:08:50.047Z,12.19
2022-09-18T18:11:25.366Z,12.19
2022-09-18T18:13:54.371Z,12.24
2022-09-18T18:16:23.636Z,12.22
2022-09-18T18:18:53.408Z,12.27
2022-09-18T18:21:23.036Z,12.25
2022-09-18T18:23:55.408Z,12.22
2022-09-18T18:26:22.003Z,12.26
2022-09-18T18:28:50.270Z,12.27
2022-09-18T18:31:17.435Z,12.26
2022-09-18T18:33:44.322Z,12.29
2022-09-18T18:36:17.094Z,12.02
2022-09-18T18:38:45.797Z,12.05
2022-09-18T18:41:13.757Z,12.22
2022-09-18T18:43:42.545Z,12.31
2022-09-18T18:46:12.961Z,12.33
2022-09-18T18:48:44.303Z,12.32
2022-09-18T18:51:16.045Z,12.38
2022-09-18T18:53:43.969Z,12.36
2022-09-18T18:56:15.810Z,12.39
2022-09-18T18:58:44.146Z,12.42
2022-09-18T19:01:16.471Z,12.40
2022-09-18T19:03:50.140Z,12.46
2022-09-18T19:06:16.992Z,12.34
2022-09-18T19:08:47.319Z,12.49
2022-09-18T19:11:16.480Z,12.50
2022-09-18T19:13:44.942Z,12.53
2022-09-18T19:16:15.653Z,12.37
2022-09-18T19:18:43.041Z,12.62
2022-09-18T19:21:09.667Z,12.60
2022-09-18T19:23:37.034Z,12.60
2022-09-18T19:26:04.749Z,12.68
2022-09-18T19:28:31.419Z,12.77
2022-09-18T19:31:04.200Z,12.72
2022-09-18T19:33:33.213Z,12.75
2022-09-18T19:36:06.945Z,12.77
2022-09-18T19:38:36.411Z,12.77
2022-09-18T19:41:13.490Z,12.80
2022-09-18T19:43:41.464Z,12.84
2022-09-18T19:46:12.924Z,12.88
2022-09-18T19:48:39.703Z,12.91
2022-09-18T19:51:08.050Z,12.91
2022-09-18T19:53:35.331Z,12.91
2022-09-18T19:56:02.906Z,12.98
2022-09-18T19:58:29.485Z,12.92
2022-09-18T20:00:56.799Z,13.01
2022-09-18T20:03:23.370Z,13.07
2022-09-18T20:05:50.753Z,13.11
2022-09-18T20:08:17.317Z,13.11
2022-09-18T20:10:44.222Z,13.13
2022-09-18T20:13:15.347Z,13.17
2022-09-18T20:15:41.934Z,13.21
2022-09-18T20:18:08.577Z,13.27
2022-09-18T20:20:37.494Z,13.32
2022-09-18T20:23:07.624Z,13.31
2022-09-18T20:25:34.241Z,13.38
2022-09-18T20:28:02.976Z,13.41
2022-09-18T20:30:29.579Z,13.44
2022-09-18T20:32:56.190Z,13.41
2022-09-18T20:35:22.838Z,13.48
2022-09-18T20:37:49.428Z,13.61
2022-09-18T20:40:16.176Z,13.60
2022-09-18T20:42:42.804Z,13.65
2022-09-18T20:45:10.425Z,13.77
2022-09-18T20:47:37.565Z,13.84
2022-09-18T20:50:13.422Z,13.87
2022-09-18T20:52:42.985Z,13.93
2022-09-18T20:55:12.492Z,13.96
2022-09-18T20:57:40.355Z,13.98
2022-09-18T21:00:10.083Z,14.02
2022-09-18T21:02:37.751Z,14.09
2022-09-18T21:05:08.779Z,14.16
2022-09-18T21:07:35.399Z,14.19
2022-09-18T21:10:01.976Z,14.24
2022-09-18T21:12:35.252Z,14.24
2022-09-18T21:15:02.254Z,14.32
2022-09-18T21:17:30.539Z,14.37
2022-09-18T21:19:58.954Z,14.41
2022-09-18T21:22:28.483Z,14.47
2022-09-18T21:24:55.064Z,14.49
2022-09-18T21:27:21.723Z,14.51
2022-09-18T21:29:48.277Z,14.47
2022-09-18T21:32:14.822Z,14.53
2022-09-18T21:34:44.976Z,14.39
2022-09-18T21:37:12.157Z,14.45
2022-09-18T21:39:39.068Z,14.70
2022-09-18T21:42:07.450Z,14.69
2022-09-18T21:44:37.715Z,14.73
2022-09-18T21:47:08.730Z,14.75
2022-09-18T21:49:35.403Z,14.76
2022-09-18T21:52:05.046Z,14.83
2022-09-18T21:54:32.250Z,14.84
2022-09-18T21:56:59.427Z,14.80
2022-09-18T21:59:30.387Z,14.81
2022-09-18T22:01:58.678Z,14.88
2022-09-18T22:04:28.221Z,14.76
2022-09-18T22:06:57.148Z,14.92
2022-09-18T22:09:28.276Z,14.97
2022-09-18T22:11:56.012Z,14.98
2022-09-18T22:14:31.415Z,15.04
2022-09-18T22:17:02.949Z,15.07
2022-09-18T22:19:30.154Z,15.09
2022-09-18T22:21:57.124Z,15.08
2022-09-18T22:24:24.839Z,15.13
2022-09-18T22:26:55.486Z,15.16
2022-09-18T22:29:27.875Z,15.19
2022-09-18T22:31:55.163Z,15.21
2022-09-18T22:34:24.541Z,15.26
2022-09-18T22:36:51.462Z,15.23
2022-09-18T22:39:19.874Z,15.32
2022-09-18T22:41:47.180Z,15.27
2022-09-18T22:44:16.363Z,15.31
2022-09-18T22:46:45.151Z,15.31
2022-09-18T22:49:23.201Z,15.34
2022-09-18T22:51:50.767Z,15.36
2022-09-18T22:54:23.536Z,15.33
2022-09-18T22:56:52.314Z,15.35
2022-09-18T22:59:21.648Z,15.35
2022-09-18T23:01:58.453Z,15.37
2022-09-18T23:04:29.158Z,15.37
2022-09-18T23:06:57.213Z,15.38
2022-09-18T23:09:24.418Z,15.43
2022-09-18T23:11:54.992Z,15.45
2022-09-18T23:14:26.045Z,15.48
2022-09-18T23:16:53.299Z,15.35
2022-09-18T23:19:26.879Z,15.48
2022-09-18T23:21:54.337Z,15.49
2022-09-18T23:24:22.456Z,15.52
2022-09-18T23:26:52.175Z,15.47
2022-09-18T23:29:22.328Z,15.37
2022-09-18T23:31:57.157Z,15.21
2022-09-18T23:34:27.894Z,15.08
2022-09-18T23:36:55.399Z,15.11
2022-09-18T23:39:27.196Z,15.19
2022-09-18T23:41:53.854Z,15.24
2022-09-18T23:44:21.823Z,15.28
2022-09-18T23:46:50.232Z,15.35
2022-09-18T23:49:23.158Z,15.35
2022-09-18T23:51:52.369Z,15.34
2022-09-18T23:54:24.443Z,15.35
2022-09-18T23:56:51.860Z,15.38
2022-09-18T23:59:22.790Z,15.39
